createdAt,value
2023-05-19T00:00:33.296Z,91.88
2023-05-19T00:03:21.744Z,92.07
2023-05-19T00:05:53.827Z,92.02
2023-05-19T00:08:24.738Z,92.14
2023-05-19T00:10:52.910Z,92.13
2023-05-19T00:13:23.797Z,92.32
2023-05-19T00:15:52.084Z,92.63
2023-05-19T00:18:20.743Z,92.56
2023-05-19T00:20:49.494Z,92.65
2023-05-19T00:23:17.372Z,92.61
2023-05-19T00:25:45.373Z,92.72
2023-05-19T00:28:17.624Z,92.67
2023-05-19T00:30:45.939Z,92.66
2023-05-19T00:33:13.896Z,92.61
2023-05-19T00:35:42.096Z,92.59
2023-05-19T00:38:10.006Z,92.57
2023-05-19T00:40:38.352Z,92.69
2023-05-19T00:43:08.438Z,92.61
2023-05-19T00:45:36.796Z,92.77
2023-05-19T00:48:06.436Z,92.84
2023-05-19T00:50:35.061Z,92.89
2023-05-19T00:53:03.494Z,92.93
2023-05-19T00:55:32.139Z,93.01
2023-05-19T00:58:01.580Z,93.16
2023-05-19T01:00:31.058Z,93.24
2023-05-19T01:02:59.659Z,93.34
2023-05-19T01:05:27.754Z,93.48
2023-05-19T01:07:56.540Z,93.60
2023-05-19T01:10:24.543Z,93.76
2023-05-19T01:12:52.549Z,93.80
2023-05-19T01:15:20.698Z,93.91
2023-05-19T01:18:00.159Z,94.04
2023-05-19T01:20:34.324Z,94.12
2023-05-19T01:23:11.429Z,94.16
2023-05-19T01:26:16.995Z,94.16
2023-05-19T01:29:16.858Z,94.18
2023-05-19T01:31:48.100Z,94.57
2023-05-19T01:34:17.648Z,94.62
2023-05-19T01:36:49.821Z,94.63
2023-05-19T01:39:19.395Z,94.63
2023-05-19T01:41:47.955Z,94.84
2023-05-19T01:44:16.471Z,94.77
2023-05-19T01:46:45.532Z,95.00
2023-05-19T01:49:13.936Z,95.03
2023-05-19T01:51:44.129Z,94.94
2023-05-19T01:54:12.153Z,95.08
2023-05-19T01:57:37.353Z,95.07
2023-05-19T02:00:27.344Z,95.11
2023-05-19T02:03:25.991Z,94.99
2023-05-19T02:06:20.031Z,95.05
2023-05-19T02:09:16.096Z,95.16
2023-05-19T02:11:57.635Z,95.13
2023-05-19T02:14:33.450Z,95.25
2023-05-19T02:17:04.481Z,95.20
2023-05-19T02:19:39.060Z,95.35
2023-05-19T02:22:07.167Z,95.48
2023-05-19T02:24:35.097Z,95.50
2023-05-19T02:27:03.840Z,95.66
2023-05-19T02:29:31.754Z,95.63
2023-05-19T02:32:01.957Z,95.79
2023-05-19T02:34:29.928Z,95.86
2023-05-19T02:36:58.024Z,95.89
2023-05-19T02:39:26.542Z,95.98
2023-05-19T02:41:54.698Z,95.89
2023-05-19T02:44:22.543Z,95.94
2023-05-19T02:46:51.578Z,96.08
2023-05-19T02:49:19.644Z,96.15
2023-05-19T02:51:51.599Z,96.49
2023-05-19T02:54:19.534Z,96.50
2023-05-19T02:56:47.506Z,96.24
2023-05-19T02:59:15.931Z,95.94
2023-05-19T03:01:44.245Z,95.82
2023-05-19T03:04:14.079Z,95.78
2023-05-19T03:06:45.390Z,96.03
2023-05-19T03:09:16.968Z,96.04
2023-05-19T03:11:47.045Z,96.07
2023-05-19T03:14:18.825Z,96.17
2023-05-19T03:16:49.061Z,96.29
2023-05-19T03:19:18.529Z,96.32
2023-05-19T03:21:49.694Z,96.39
2023-05-19T03:24:18.255Z,96.17
2023-05-19T03:26:46.635Z,96.09
2023-05-19T03:29:14.787Z,96.29
2023-05-19T03:31:42.905Z,96.64
2023-05-19T03:34:11.053Z,96.50
2023-05-19T03:36:39.867Z,96.39
2023-05-19T03:39:11.328Z,96.38
2023-05-19T03:41:39.453Z,96.52
2023-05-19T03:44:07.460Z,96.57
2023-05-19T03:46:35.452Z,96.47
2023-05-19T03:49:09.333Z,96.60
2023-05-19T03:51:58.218Z,96.77
2023-05-19T03:54:34.234Z,96.76
2023-05-19T03:57:02.513Z,96.62
2023-05-19T03:59:32.069Z,96.47
2023-05-19T04:02:00.275Z,96.44
2023-05-19T04:04:28.948Z,96.31
2023-05-19T04:06:59.071Z,95.98
2023-05-19T04:09:27.171Z,95.94
2023-05-19T04:11:56.233Z,96.02
2023-05-19T04:14:25.670Z,95.96
2023-05-19T04:16:54.383Z,95.80
2023-05-19T04:19:22.536Z,95.88
2023-05-19T04:21:51.019Z,96.04
2023-05-19T04:24:18.844Z,96.06
2023-05-19T04:26:48.213Z,96.22
2023-05-19T04:29:18.519Z,96.35
2023-05-19T04:31:46.977Z,96.25
2023-05-19T04:34:15.141Z,96.23
2023-05-19T04:36:43.719Z,96.12
2023-05-19T04:39:12.433Z,95.83
2023-05-19T04:41:44.696Z,95.17
2023-05-19T04:44:13.866Z,94.84
2023-05-19T04:46:42.858Z,94.52
2023-05-19T04:49:14.557Z,94.16
2023-05-19T04:51:42.572Z,93.67
2023-05-19T04:54:10.756Z,93.37
2023-05-19T04:56:38.720Z,93.06
2023-05-19T04:59:07.043Z,92.74
2023-05-19T05:01:40.288Z,92.46
2023-05-19T05:04:08.515Z,91.87
2023-05-19T05:06:38.452Z,91.64
2023-05-19T05:09:06.709Z,91.57
2023-05-19T05:11:35.516Z,91.18
2023-05-19T05:14:04.207Z,90.94
2023-05-19T05:16:34.211Z,90.48
2023-05-19T05:19:03.029Z,90.33
2023-05-19T05:21:32.082Z,90.05
2023-05-19T05:24:00.704Z,89.64
2023-05-19T05:26:33.184Z,89.16
2023-05-19T05:29:03.006Z,89.09
2023-05-19T05:31:31.811Z,88.98
2023-05-19T05:34:00.017Z,89.02
2023-05-19T05:36:31.532Z,88.86
2023-05-19T05:39:02.474Z,89.03
2023-05-19T05:41:35.305Z,89.07
2023-05-19T05:44:06.826Z,88.76
2023-05-19T05:46:35.454Z,88.32
2023-05-19T05:49:04.406Z,88.19
2023-05-19T05:51:33.877Z,87.58
2023-05-19T05:54:02.919Z,87.19
2023-05-19T05:56:38.241Z,87.10
2023-05-19T05:59:07.395Z,86.69
2023-05-19T06:01:38.263Z,86.36
2023-05-19T06:04:08.019Z,85.86
2023-05-19T06:06:39.036Z,84.65
2023-05-19T06:09:07.274Z,83.13
2023-05-19T06:11:35.292Z,83.44
2023-05-19T06:14:04.530Z,83.56
2023-05-19T06:16:53.015Z,83.04
2023-05-19T06:19:21.743Z,82.11
2023-05-19T06:21:49.956Z,82.07
2023-05-19T06:24:18.206Z,82.76
2023-05-19T06:26:46.285Z,82.97
2023-05-19T06:29:14.331Z,82.72
2023-05-19T06:31:43.128Z,82.52
2023-05-19T06:34:17.564Z,82.61
2023-05-19T06:36:45.866Z,82.58
2023-05-19T06:39:13.966Z,82.62
2023-05-19T06:41:42.170Z,82.14
2023-05-19T06:44:10.439Z,82.17
2023-05-19T06:46:38.420Z,81.99
2023-05-19T06:49:06.587Z,81.79
2023-05-19T06:51:38.373Z,81.81
2023-05-19T06:54:06.974Z,81.83
2023-05-19T06:56:34.982Z,81.68
2023-05-19T06:59:04.221Z,81.59
2023-05-19T07:01:35.114Z,81.16
2023-05-19T07:04:03.770Z,80.55
2023-05-19T07:06:31.881Z,80.10
2023-05-19T07:08:59.818Z,79.87
2023-05-19T07:11:29.326Z,79.48
2023-05-19T07:13:57.505Z,78.33
2023-05-19T07:16:28.527Z,78.50
2023-05-19T07:18:56.689Z,78.19
2023-05-19T07:21:24.984Z,78.70
2023-05-19T07:23:52.893Z,78.29
2023-05-19T07:26:22.749Z,76.88
2023-05-19T07:28:52.104Z,75.35
2023-05-19T07:31:20.018Z,75.99
2023-05-19T07:33:48.057Z,76.21
2023-05-19T07:36:16.497Z,76.19
2023-05-19T07:38:46.649Z,76.32
2023-05-19T07:41:14.735Z,75.39
2023-05-19T07:43:43.193Z,73.10
2023-05-19T07:46:11.186Z,73.30
2023-05-19T07:48:40.296Z,73.92
2023-05-19T07:51:10.248Z,72.46
2023-05-19T07:53:38.209Z,72.25
2023-05-19T07:56:06.607Z,71.53
2023-05-19T07:58:34.872Z,71.91
2023-05-19T08:01:02.959Z,71.99
2023-05-19T08:03:31.234Z,71.35
2023-05-19T08:05:59.402Z,71.14
2023-05-19T08:08:27.581Z,70.85
2023-05-19T08:10:55.539Z,69.92
2023-05-19T08:13:23.567Z,69.86
2023-05-19T08:15:51.690Z,70.51
2023-05-19T08:18:20.323Z,69.88
2023-05-19T08:20:48.310Z,70.02
2023-05-19T08:23:16.279Z,69.21
2023-05-19T08:25:45.057Z,69.50
2023-05-19T08:28:12.934Z,69.37
2023-05-19T08:30:41.888Z,69.00
2023-05-19T08:33:10.116Z,68.19
2023-05-19T08:35:38.111Z,68.35
2023-05-19T08:38:06.215Z,68.57
2023-05-19T08:40:37.535Z,67.24
2023-05-19T08:43:05.495Z,64.96
2023-05-19T08:45:34.656Z,65.61
2023-05-19T08:48:04.048Z,64.47
2023-05-19T08:50:39.452Z,62.21
2023-05-19T08:56:11.404Z,62.95
2023-05-19T08:58:41.465Z,61.86
2023-05-19T09:01:19.750Z,61.22
2023-05-19T09:03:50.018Z,61.12
2023-05-19T09:06:18.941Z,61.52
2023-05-19T09:08:47.299Z,60.21
2023-05-19T09:11:15.245Z,60.71
2023-05-19T09:13:43.886Z,60.82
2023-05-19T09:16:12.361Z,59.69
2023-05-19T09:18:41.051Z,59.19
2023-05-19T09:21:11.245Z,58.23
2023-05-19T09:23:39.151Z,57.69
2023-05-19T09:26:08.038Z,57.06
2023-05-19T09:28:38.054Z,56.74
2023-05-19T09:31:10.411Z,56.76
2023-05-19T09:33:45.468Z,56.75
2023-05-19T09:36:14.591Z,57.32
2023-05-19T09:38:42.618Z,56.36
2023-05-19T09:41:10.644Z,55.68
2023-05-19T09:43:38.648Z,56.97
2023-05-19T09:46:08.629Z,57.53
2023-05-19T09:48:37.853Z,58.02
2023-05-19T09:51:10.203Z,58.10
2023-05-19T09:53:39.296Z,58.13
2023-05-19T09:56:10.063Z,58.64
2023-05-19T09:58:42.542Z,58.83
2023-05-19T10:01:11.355Z,58.78
2023-05-19T10:03:40.478Z,59.04
2023-05-19T10:06:09.375Z,59.49
2023-05-19T10:08:39.768Z,58.28
2023-05-19T10:11:09.993Z,58.77
2023-05-19T10:13:39.932Z,59.34
2023-05-19T10:16:09.853Z,59.38
2023-05-19T10:18:39.963Z,58.91
2023-05-19T10:21:09.374Z,58.32
2023-05-19T10:23:37.500Z,58.28
2023-05-19T10:26:07.002Z,56.25
2023-05-19T10:28:38.354Z,53.39
2023-05-19T10:31:11.415Z,53.10
2023-05-19T10:34:03.783Z,53.91
2023-05-19T10:36:38.144Z,52.76
2023-05-19T10:39:35.607Z,51.98
2023-05-19T10:42:03.531Z,50.27
2023-05-19T10:44:53.225Z,50.16
2023-05-19T10:47:27.731Z,50.95
2023-05-19T10:49:56.105Z,50.17
2023-05-19T10:52:29.918Z,49.70
2023-05-19T10:54:58.448Z,49.40
2023-05-19T10:57:28.240Z,49.49
2023-05-19T10:59:57.468Z,49.63
2023-05-19T11:02:42.974Z,47.86
2023-05-19T11:05:16.831Z,47.70
2023-05-19T11:07:56.250Z,47.20
2023-05-19T11:10:24.861Z,43.61
2023-05-19T11:12:52.709Z,43.04
2023-05-19T11:15:25.977Z,43.93
2023-05-19T11:18:16.173Z,41.93
2023-05-19T11:20:44.761Z,42.18
2023-05-19T11:23:19.097Z,42.50
2023-05-19T11:25:47.213Z,43.05
2023-05-19T11:28:19.561Z,41.97
2023-05-19T11:30:52.746Z,40.00
2023-05-19T11:33:21.765Z,40.62
2023-05-19T11:36:10.863Z,40.37
2023-05-19T11:38:38.938Z,39.85
2023-05-19T11:41:07.945Z,39.57
2023-05-19T11:43:35.939Z,39.97
2023-05-19T11:46:03.984Z,39.47
2023-05-19T11:48:32.117Z,39.59
2023-05-19T11:51:01.096Z,39.53
2023-05-19T11:53:33.423Z,39.90
2023-05-19T11:56:05.599Z,39.27
2023-05-19T11:58:33.590Z,38.98
2023-05-19T12:01:04.979Z,37.99
2023-05-19T12:03:33.157Z,36.62
2023-05-19T12:06:03.828Z,36.71
2023-05-19T12:08:31.898Z,36.62
2023-05-19T12:10:59.832Z,37.66
2023-05-19T12:13:28.928Z,37.41
2023-05-19T12:16:00.798Z,36.28
2023-05-19T12:18:37.558Z,36.22
2023-05-19T12:21:06.538Z,35.92
2023-05-19T12:23:34.925Z,35.93
2023-05-19T12:26:03.018Z,36.95
2023-05-19T12:28:33.844Z,36.71
2023-05-19T12:31:02.777Z,36.80
2023-05-19T12:33:33.648Z,36.58
2023-05-19T12:36:04.947Z,36.39
2023-05-19T12:38:33.023Z,36.03
2023-05-19T12:41:01.018Z,35.82
2023-05-19T12:43:29.607Z,35.48
2023-05-19T12:45:57.712Z,35.94
2023-05-19T12:48:25.689Z,36.55
2023-05-19T12:50:55.632Z,37.64
2023-05-19T12:53:27.293Z,36.48
2023-05-19T12:55:55.995Z,35.26
2023-05-19T12:58:24.337Z,34.85
2023-05-19T13:00:59.760Z,35.37
2023-05-19T13:03:28.066Z,36.27
2023-05-19T13:05:56.144Z,36.55
2023-05-19T13:08:24.739Z,36.02
2023-05-19T13:10:52.637Z,35.77
2023-05-19T13:13:22.065Z,36.73
2023-05-19T13:15:50.151Z,36.78
2023-05-19T13:18:18.413Z,36.09
2023-05-19T13:20:47.438Z,36.36
2023-05-19T13:23:16.472Z,35.90
2023-05-19T13:25:44.743Z,36.34
2023-05-19T13:28:12.781Z,36.03
2023-05-19T13:30:43.290Z,36.63
2023-05-19T13:33:12.035Z,36.94
2023-05-19T13:35:40.168Z,37.06
2023-05-19T13:38:10.308Z,37.80
2023-05-19T13:40:39.783Z,38.36
2023-05-19T13:43:08.890Z,39.30
2023-05-19T13:45:37.381Z,40.62
2023-05-19T13:48:07.458Z,41.82
2023-05-19T13:58:51.250Z,44.94
2023-05-19T14:01:19.454Z,46.17
2023-05-19T14:03:47.756Z,47.58
2023-05-19T14:06:16.147Z,49.11
2023-05-19T14:08:45.813Z,50.25
2023-05-19T14:11:21.759Z,50.88
2023-05-19T14:13:53.189Z,51.92
2023-05-19T14:16:23.058Z,52.38
2023-05-19T14:18:51.182Z,52.82
2023-05-19T14:21:19.397Z,53.08
2023-05-19T14:23:47.590Z,53.19
2023-05-19T14:26:16.129Z,53.31
2023-05-19T14:28:44.254Z,52.90
2023-05-19T14:31:13.278Z,53.50
2023-05-19T14:33:42.345Z,53.54
2023-05-19T14:36:10.977Z,53.65
2023-05-19T14:38:39.046Z,53.66
2023-05-19T14:41:07.398Z,53.46
2023-05-19T14:43:35.458Z,53.31
2023-05-19T14:46:03.614Z,53.10
2023-05-19T14:48:32.115Z,52.91
2023-05-19T14:51:00.203Z,52.61
2023-05-19T14:53:28.525Z,52.40
2023-05-19T14:55:56.602Z,52.36
2023-05-19T14:58:28.772Z,52.29
2023-05-19T15:00:59.498Z,52.23
2023-05-19T15:03:27.492Z,52.30
2023-05-19T15:05:55.654Z,52.45
2023-05-19T15:08:23.751Z,52.46
2023-05-19T15:10:51.766Z,52.50
2023-05-19T15:13:21.450Z,52.47
2023-05-19T15:15:58.921Z,51.96
2023-05-19T15:18:34.280Z,51.09
2023-05-19T15:21:02.449Z,50.79
2023-05-19T15:23:30.531Z,50.49
2023-05-19T15:25:59.012Z,50.29
2023-05-19T15:28:27.006Z,49.89
2023-05-19T15:30:55.000Z,49.72
2023-05-19T15:33:23.005Z,48.59
2023-05-19T15:35:52.356Z,47.75
2023-05-19T15:38:20.641Z,47.56
2023-05-19T15:40:48.706Z,46.32
2023-05-19T15:43:17.543Z,46.14
2023-05-19T15:45:45.637Z,45.99
2023-05-19T15:48:13.775Z,44.11
2023-05-19T15:50:41.776Z,43.14
2023-05-19T15:53:10.665Z,43.35
2023-05-19T15:55:38.863Z,42.64
2023-05-19T15:58:08.886Z,44.11
2023-05-19T16:00:37.576Z,44.58
2023-05-19T16:03:05.660Z,45.14
2023-05-19T16:05:33.831Z,45.22
2023-05-19T16:08:01.818Z,45.94
2023-05-19T16:10:30.048Z,46.05
2023-05-19T16:12:58.188Z,46.18
2023-05-19T16:15:26.342Z,46.61
2023-05-19T16:18:16.025Z,46.68
2023-05-19T16:20:44.308Z,46.85
2023-05-19T16:23:12.421Z,47.02
2023-05-19T16:25:41.547Z,47.67
2023-05-19T16:28:09.736Z,48.10
2023-05-19T16:30:38.031Z,48.59
2023-05-19T16:33:06.623Z,48.92
2023-05-19T16:35:34.971Z,49.27
2023-05-19T16:38:03.108Z,49.54
2023-05-19T16:40:31.328Z,49.75
2023-05-19T16:42:59.451Z,50.14
2023-05-19T16:45:27.672Z,50.36
2023-05-19T16:47:57.097Z,50.39
2023-05-19T16:50:25.296Z,50.54
2023-05-19T16:52:53.401Z,50.85
2023-05-19T16:55:22.824Z,50.99
2023-05-19T16:57:51.312Z,51.28
2023-05-19T17:00:19.652Z,51.37
2023-05-19T17:02:47.945Z,51.53
2023-05-19T17:05:16.995Z,51.61
2023-05-19T17:07:45.144Z,51.85
2023-05-19T17:10:14.485Z,52.06
2023-05-19T17:12:42.772Z,52.14
2023-05-19T17:15:11.382Z,52.32
2023-05-19T17:17:39.608Z,52.68
2023-05-19T17:20:08.470Z,52.83
2023-05-19T17:22:36.666Z,53.12
2023-05-19T17:25:06.010Z,53.39
2023-05-19T17:27:34.087Z,53.63
2023-05-19T17:30:02.758Z,53.97
2023-05-19T17:32:35.759Z,54.21
2023-05-19T17:35:06.714Z,54.18
2023-05-19T17:37:35.051Z,54.40
2023-05-19T17:40:03.312Z,54.56
2023-05-19T17:42:31.802Z,54.51
2023-05-19T17:45:00.147Z,54.74
2023-05-19T17:47:28.525Z,55.02
2023-05-19T17:49:57.310Z,55.02
2023-05-19T17:52:26.554Z,55.04
2023-05-19T17:54:55.219Z,55.11
2023-05-19T17:57:25.797Z,55.24
2023-05-19T17:59:54.257Z,55.11
2023-05-19T18:02:22.678Z,55.04
2023-05-19T18:05:10.916Z,54.93
2023-05-19T18:07:40.140Z,54.91
2023-05-19T18:10:09.347Z,54.92
2023-05-19T18:12:37.771Z,54.98
2023-05-19T18:15:06.728Z,54.92
2023-05-19T18:17:35.149Z,55.10
2023-05-19T18:20:04.220Z,55.18
2023-05-19T18:22:32.650Z,55.29
2023-05-19T18:25:00.997Z,55.52
2023-05-19T18:27:29.913Z,55.71
2023-05-19T18:29:58.115Z,55.80
2023-05-19T18:32:26.342Z,56.03
2023-05-19T18:34:54.582Z,56.23
2023-05-19T18:37:22.671Z,56.39
2023-05-19T18:39:50.829Z,56.49
2023-05-19T18:42:18.816Z,56.54
2023-05-19T18:44:47.623Z,56.66
2023-05-19T18:47:15.770Z,56.73
2023-05-19T18:49:43.783Z,56.89
2023-05-19T18:52:11.962Z,56.88
2023-05-19T18:54:42.201Z,56.99
2023-05-19T18:57:10.290Z,57.15
2023-05-19T18:59:39.190Z,57.31
2023-05-19T19:02:27.406Z,57.33
2023-05-19T19:04:55.822Z,57.34
2023-05-19T19:07:26.767Z,57.45
2023-05-19T19:09:54.836Z,57.49
2023-05-19T19:12:22.975Z,57.59
2023-05-19T19:14:51.316Z,57.78
2023-05-19T19:17:19.752Z,58.01
2023-05-19T19:19:48.156Z,58.07
2023-05-19T19:22:16.513Z,58.20
2023-05-19T19:24:44.685Z,58.38
2023-05-19T19:27:12.965Z,58.51
2023-05-19T19:29:41.757Z,58.84
2023-05-19T19:32:10.504Z,58.98
2023-05-19T19:34:38.678Z,59.13
2023-05-19T19:37:06.628Z,59.34
2023-05-19T19:39:34.752Z,59.46
2023-05-19T19:42:02.827Z,59.63
2023-05-19T19:44:31.002Z,59.62
2023-05-19T19:46:59.516Z,59.77
2023-05-19T19:49:27.784Z,59.89
2023-05-19T19:52:16.216Z,59.95
2023-05-19T19:55:05.115Z,60.20
2023-05-19T19:57:34.331Z,60.46
2023-05-19T20:00:08.974Z,60.54
2023-05-19T20:02:45.584Z,60.72
2023-05-19T20:05:23.680Z,60.83
2023-05-19T20:07:51.564Z,60.94
2023-05-19T20:10:19.449Z,61.16
2023-05-19T20:12:47.859Z,61.35
2023-05-19T20:15:16.058Z,61.42
2023-05-19T20:17:44.080Z,61.63
2023-05-19T20:20:12.733Z,61.68
2023-05-19T20:22:40.760Z,61.88
2023-05-19T20:25:09.122Z,62.10
2023-05-19T20:27:37.817Z,62.24
2023-05-19T20:30:07.177Z,62.41
2023-05-19T20:32:35.828Z,62.57
2023-05-19T20:35:04.090Z,62.73
2023-05-19T20:37:31.947Z,63.00
2023-05-19T20:39:59.976Z,63.11
2023-05-19T20:42:27.941Z,63.37
2023-05-19T20:44:56.435Z,63.45
2023-05-19T20:47:24.440Z,63.65
2023-05-19T20:49:52.493Z,63.84
2023-05-19T20:52:20.482Z,64.09
2023-05-19T20:54:48.615Z,64.10
2023-05-19T20:57:16.940Z,64.27
2023-05-19T20:59:45.579Z,64.40
2023-05-19T21:02:13.805Z,64.52
2023-05-19T21:04:46.131Z,64.68
2023-05-19T21:07:14.449Z,64.92
2023-05-19T21:09:46.341Z,65.16
2023-05-19T21:12:16.215Z,65.31
2023-05-19T21:14:44.312Z,65.40
2023-05-19T21:17:12.467Z,65.47
2023-05-19T21:19:41.438Z,65.63
2023-05-19T21:22:09.424Z,65.85
2023-05-19T21:24:37.522Z,65.84
2023-05-19T21:27:06.818Z,65.94
2023-05-19T21:29:34.791Z,65.99
2023-05-19T21:32:02.793Z,66.07
2023-05-19T21:34:30.880Z,66.13
2023-05-19T21:36:59.037Z,66.21
2023-05-19T21:39:27.030Z,66.22
2023-05-19T21:41:55.122Z,66.34
2023-05-19T21:44:25.162Z,66.19
2023-05-19T21:46:53.310Z,66.13
2023-05-19T21:49:21.830Z,66.11
2023-05-19T21:51:49.803Z,66.13
2023-05-19T21:54:17.874Z,66.18
2023-05-19T21:56:46.017Z,66.28
2023-05-19T21:59:14.165Z,66.37
2023-05-19T22:01:42.430Z,66.43
2023-05-19T22:04:10.542Z,66.61
2023-05-19T22:06:38.636Z,66.78
2023-05-19T22:09:06.813Z,66.83
2023-05-19T22:11:34.777Z,67.01
2023-05-19T22:14:02.817Z,67.05
2023-05-19T22:16:31.237Z,67.20
2023-05-19T22:18:59.411Z,67.36
2023-05-19T22:21:27.534Z,67.62
2023-05-19T22:23:55.786Z,67.68
2023-05-19T22:26:23.850Z,67.82
2023-05-19T22:28:51.849Z,68.01
2023-05-19T22:31:19.879Z,68.14
2023-05-19T22:33:47.970Z,68.21
2023-05-19T22:36:16.874Z,68.30
2023-05-19T22:38:44.906Z,68.42
2023-05-19T22:41:12.964Z,68.61
2023-05-19T22:43:41.014Z,68.58
2023-05-19T22:46:08.985Z,68.61
2023-05-19T22:48:37.072Z,68.57
2023-05-19T22:51:05.169Z,68.64
2023-05-19T22:53:33.116Z,68.62
2023-05-19T22:56:03.308Z,68.59
2023-05-19T22:58:31.354Z,68.65
2023-05-19T23:00:59.372Z,68.70
2023-05-19T23:03:27.412Z,68.73
2023-05-19T23:05:55.363Z,68.82
2023-05-19T23:08:23.454Z,68.95
2023-05-19T23:10:51.426Z,68.94
2023-05-19T23:13:19.488Z,69.08
2023-05-19T23:15:49.033Z,69.19
2023-05-19T23:18:17.101Z,69.31
2023-05-19T23:20:45.005Z,69.43
2023-05-19T23:23:13.179Z,69.59
2023-05-19T23:25:41.148Z,69.54
2023-05-19T23:28:10.433Z,69.68
2023-05-19T23:30:38.444Z,69.79
2023-05-19T23:33:06.628Z,69.74
2023-05-19T23:35:34.966Z,69.88
2023-05-19T23:38:03.236Z,69.95
2023-05-19T23:40:32.513Z,70.14
2023-05-19T23:43:00.523Z,70.35
2023-05-19T23:45:28.715Z,70.49
2023-05-19T23:47:56.744Z,70.57
2023-05-19T23:50:24.882Z,70.75
2023-05-19T23:52:52.783Z,70.80
2023-05-19T23:55:20.755Z,70.87
2023-05-19T23:57:48.925Z,70.68
